createdAt,value
2019-03-21T00:01:29.167Z,7.53
2019-03-21T00:04:01.984Z,6.87
2019-03-21T00:06:31.990Z,7.90
2019-03-21T00:09:02.036Z,8.10
2019-03-21T00:11:59.834Z,7.63
2019-03-21T00:15:11.936Z,7.30
2019-03-21T00:17:49.420Z,7.80
2019-03-21T00:20:19.454Z,8.23
2019-03-21T00:22:49.496Z,8.00
2019-03-21T00:25:22.365Z,7.53
2019-03-21T00:27:52.392Z,7.70
2019-03-21T00:30:23.412Z,7.70
2019-03-21T00:32:54.060Z,8.47
2019-03-21T00:35:24.287Z,8.63
2019-03-21T00:37:54.307Z,8.53
2019-03-21T00:40:27.374Z,7.90
2019-03-21T00:42:58.704Z,8.27
2019-03-21T00:45:28.825Z,7.97
2019-03-21T00:47:59.095Z,7.80
2019-03-21T00:50:29.144Z,8.83
2019-03-21T00:52:59.272Z,8.10
2019-03-21T00:55:30.790Z,8.07
2019-03-21T00:58:00.947Z,8.97
2019-03-21T01:00:34.812Z,8.70
2019-03-21T01:03:04.863Z,9.53
2019-03-21T01:05:34.861Z,9.30
2019-03-21T01:08:04.877Z,9.83
2019-03-21T01:10:34.933Z,9.93
2019-03-21T01:13:04.999Z,9.07
2019-03-21T01:15:35.153Z,8.80
2019-03-21T01:18:05.509Z,9.97
2019-03-21T01:20:35.611Z,10.50
2019-03-21T01:23:05.919Z,10.43
2019-03-21T01:25:39.273Z,10.93
2019-03-21T01:28:09.390Z,10.57
2019-03-21T01:30:39.543Z,10.20
2019-03-21T01:33:09.555Z,11.07
2019-03-21T01:35:41.227Z,10.57
2019-03-21T01:38:11.229Z,10.17
2019-03-21T01:40:42.539Z,9.77
2019-03-21T01:43:12.755Z,11.40
2019-03-21T01:45:42.871Z,10.20
2019-03-21T01:48:13.445Z,10.23
2019-03-21T01:50:43.587Z,9.97
2019-03-21T01:53:13.878Z,9.77
2019-03-21T01:55:43.893Z,9.40
2019-03-21T01:58:13.941Z,9.67
2019-03-21T02:00:43.977Z,9.03
2019-03-21T02:03:13.963Z,9.77
2019-03-21T02:05:44.318Z,9.93
2019-03-21T02:08:14.572Z,10.47
2019-03-21T02:10:44.587Z,9.90
2019-03-21T02:13:14.632Z,10.53
2019-03-21T02:15:46.555Z,11.17
2019-03-21T02:18:16.501Z,12.33
2019-03-21T02:20:46.551Z,12.30
2019-03-21T02:23:16.641Z,13.60
2019-03-21T02:25:46.781Z,13.70
2019-03-21T02:28:17.207Z,14.47
2019-03-21T02:30:47.274Z,13.17
2019-03-21T02:33:23.335Z,12.80
2019-03-21T02:35:53.476Z,13.10
2019-03-21T02:38:23.588Z,12.60
2019-03-21T02:40:53.661Z,12.50
2019-03-21T02:43:23.846Z,11.57
2019-03-21T02:45:54.041Z,12.27
2019-03-21T02:48:24.152Z,11.60
2019-03-21T02:50:54.420Z,11.60
2019-03-21T02:53:24.687Z,11.10
2019-03-21T02:55:54.744Z,11.57
2019-03-21T02:58:24.849Z,11.53
2019-03-21T03:00:54.844Z,11.80
2019-03-21T03:03:24.830Z,11.13
2019-03-21T03:05:55.332Z,10.60
2019-03-21T03:08:25.360Z,11.70
2019-03-21T03:10:55.870Z,9.97
2019-03-21T03:13:26.196Z,9.80
2019-03-21T03:15:56.209Z,9.87
2019-03-21T03:18:26.297Z,9.83
2019-03-21T03:20:56.635Z,9.97
2019-03-21T03:23:26.808Z,9.37
2019-03-21T03:25:56.864Z,8.77
2019-03-21T03:28:27.379Z,9.20
2019-03-21T03:30:57.865Z,8.80
2019-03-21T03:33:28.879Z,9.17
2019-03-21T03:36:00.383Z,9.40
2019-03-21T03:38:30.957Z,9.27
2019-03-21T03:41:01.697Z,9.03
2019-03-21T03:43:31.726Z,9.60
2019-03-21T03:46:01.842Z,9.20
2019-03-21T03:48:32.088Z,9.50
2019-03-21T03:51:02.493Z,9.57
2019-03-21T03:53:32.551Z,11.90
2019-03-21T03:56:02.547Z,9.63
2019-03-21T03:58:32.610Z,10.00
2019-03-21T04:01:03.116Z,9.03
2019-03-21T04:03:33.109Z,9.53
2019-03-21T04:06:03.202Z,10.10
2019-03-21T04:08:33.414Z,9.53
2019-03-21T04:11:03.571Z,9.87
2019-03-21T04:13:33.663Z,9.27
2019-03-21T04:16:03.809Z,9.87
2019-03-21T04:18:33.799Z,10.10
2019-03-21T04:21:04.323Z,10.37
2019-03-21T04:23:34.489Z,9.73
2019-03-21T04:26:11.084Z,11.10
2019-03-21T04:28:41.472Z,10.47
2019-03-21T04:31:11.451Z,9.40
2019-03-21T04:33:41.780Z,9.83
2019-03-21T04:36:11.845Z,11.50
2019-03-21T04:38:42.125Z,9.70
2019-03-21T04:41:12.671Z,9.90
2019-03-21T04:43:43.131Z,9.83
2019-03-21T04:46:13.151Z,9.50
2019-03-21T04:48:43.688Z,10.10
2019-03-21T04:51:13.919Z,9.47
2019-03-21T04:53:44.043Z,9.83
2019-03-21T04:56:14.092Z,10.10
2019-03-21T04:58:44.103Z,10.80
2019-03-21T05:01:14.178Z,11.07
2019-03-21T05:03:44.190Z,10.87
2019-03-21T05:06:14.213Z,10.57
2019-03-21T05:08:44.379Z,10.70
2019-03-21T05:11:14.486Z,11.60
2019-03-21T05:13:44.634Z,12.50
2019-03-21T05:16:15.261Z,12.33
2019-03-21T05:18:46.157Z,13.67
2019-03-21T05:21:17.960Z,12.83
2019-03-21T05:23:48.028Z,12.43
2019-03-21T05:26:18.060Z,12.60
2019-03-21T05:28:48.066Z,13.60
2019-03-21T05:31:22.079Z,12.80
2019-03-21T05:33:52.470Z,12.67
2019-03-21T05:36:23.050Z,13.93
2019-03-21T05:38:53.114Z,13.93
2019-03-21T05:41:23.234Z,14.27
2019-03-21T05:43:57.041Z,12.63
2019-03-21T05:46:27.339Z,13.40
2019-03-21T05:48:57.410Z,13.97
2019-03-21T05:51:27.469Z,13.33
2019-03-21T05:53:57.567Z,14.07
2019-03-21T05:56:27.821Z,14.10
2019-03-21T05:58:57.987Z,14.10
2019-03-21T06:01:29.950Z,14.10
2019-03-21T06:03:59.926Z,14.30
2019-03-21T06:06:46.130Z,14.23
2019-03-21T06:09:18.236Z,15.50
2019-03-21T06:11:51.692Z,14.43
2019-03-21T06:14:21.719Z,14.33
2019-03-21T06:16:51.811Z,13.67
2019-03-21T06:19:26.852Z,13.20
2019-03-21T06:22:46.396Z,12.27
2019-03-21T06:25:53.404Z,13.50
2019-03-21T06:28:23.429Z,12.37
2019-03-21T06:30:53.489Z,12.83
2019-03-21T06:33:23.558Z,13.30
2019-03-21T06:35:53.608Z,11.63
2019-03-21T06:38:23.781Z,11.93
2019-03-21T06:40:54.312Z,13.30
2019-03-21T06:43:24.365Z,13.00
2019-03-21T06:45:54.402Z,13.07
2019-03-21T06:48:24.480Z,11.90
2019-03-21T06:50:55.030Z,11.70
2019-03-21T06:53:25.045Z,12.70
2019-03-21T06:55:55.117Z,12.70
2019-03-21T06:58:25.278Z,11.73
2019-03-21T07:00:55.382Z,12.17
2019-03-21T07:03:25.418Z,12.20
2019-03-21T07:05:55.605Z,11.63
2019-03-21T07:08:25.985Z,11.40
2019-03-21T07:10:58.269Z,11.80
2019-03-21T07:13:27.706Z,11.27
2019-03-21T07:15:57.706Z,11.17
2019-03-21T07:18:27.928Z,12.53
2019-03-21T07:20:58.035Z,16.50
2019-03-21T07:23:28.066Z,13.33
2019-03-21T07:25:58.068Z,13.27
2019-03-21T07:28:28.706Z,12.53
2019-03-21T07:30:58.786Z,10.93
2019-03-21T07:33:28.915Z,11.33
2019-03-21T07:35:59.482Z,11.60
2019-03-21T07:38:30.386Z,11.60
2019-03-21T07:41:00.425Z,11.53
2019-03-21T07:43:30.485Z,10.97
2019-03-21T07:46:01.199Z,13.93
2019-03-21T07:48:31.243Z,13.47
2019-03-21T07:51:01.289Z,12.33
2019-03-21T07:53:31.644Z,11.50
2019-03-21T07:56:01.761Z,13.10
2019-03-21T07:58:33.067Z,14.23
2019-03-21T08:01:03.351Z,13.43
2019-03-21T08:03:33.449Z,13.80
2019-03-21T08:06:03.555Z,12.40
2019-03-21T08:08:33.709Z,11.33
2019-03-21T08:11:03.761Z,10.65
2019-03-21T08:13:33.847Z,11.10
2019-03-21T08:16:03.909Z,11.07
2019-03-21T08:18:34.493Z,10.97
2019-03-21T08:21:04.681Z,11.50
2019-03-21T08:23:34.803Z,15.18
2019-03-21T08:26:04.971Z,13.93
2019-03-21T08:28:35.355Z,14.10
2019-03-21T08:31:30.373Z,12.07
2019-03-21T08:34:00.487Z,12.75
2019-03-21T08:36:32.931Z,11.15
2019-03-21T08:39:03.043Z,10.00
2019-03-21T08:41:33.244Z,9.93
2019-03-21T08:44:03.452Z,9.45
2019-03-21T08:46:34.022Z,11.23
2019-03-21T08:49:04.200Z,12.15
2019-03-21T08:51:34.384Z,10.90
2019-03-21T08:54:04.617Z,11.40
2019-03-21T08:56:34.774Z,9.75
2019-03-21T08:59:04.920Z,11.13
2019-03-21T09:01:35.085Z,14.93
2019-03-21T09:04:05.156Z,12.97
2019-03-21T09:06:35.128Z,10.40
2019-03-21T09:09:07.756Z,10.28
2019-03-21T09:11:38.119Z,10.90
2019-03-21T09:14:08.229Z,10.00
2019-03-21T09:16:38.522Z,9.63
2019-03-21T09:19:08.685Z,8.73
2019-03-21T09:21:38.777Z,8.60
2019-03-21T09:24:08.955Z,8.28
2019-03-21T09:26:39.154Z,8.20
2019-03-21T09:29:09.308Z,8.70
2019-03-21T09:31:39.458Z,8.97
2019-03-21T09:34:09.718Z,10.65
2019-03-21T09:36:39.847Z,9.60
2019-03-21T09:39:10.030Z,11.90
2019-03-21T09:41:40.264Z,12.63
2019-03-21T09:44:10.366Z,10.55
2019-03-21T09:46:50.513Z,6.70
2019-03-21T09:49:12.546Z,6.87
2019-03-21T09:51:42.561Z,6.30
2019-03-21T09:54:12.626Z,6.33
2019-03-21T09:56:42.803Z,5.33
2019-03-21T09:59:13.395Z,4.72
2019-03-21T10:01:43.366Z,5.00
2019-03-21T10:04:13.400Z,5.17
2019-03-21T10:06:43.567Z,5.42
2019-03-21T10:09:14.023Z,4.92
2019-03-21T10:11:44.023Z,4.72
2019-03-21T10:14:14.158Z,3.98
2019-03-21T10:16:44.152Z,4.22
2019-03-21T10:19:14.450Z,4.12
2019-03-21T10:21:44.546Z,4.58
2019-03-21T10:24:14.688Z,4.72
2019-03-21T10:26:44.925Z,4.78
2019-03-21T10:29:15.126Z,4.22
2019-03-21T10:31:45.312Z,3.73
2019-03-21T10:34:15.425Z,3.27
2019-03-21T10:36:45.441Z,3.20
2019-03-21T10:39:15.477Z,3.27
2019-03-21T10:41:45.604Z,3.22
2019-03-21T10:44:15.867Z,2.83
2019-03-21T10:46:46.009Z,2.83
2019-03-21T10:49:16.546Z,3.58
2019-03-21T10:51:55.026Z,3.87
2019-03-21T10:54:18.923Z,3.80
2019-03-21T10:56:49.063Z,3.95
2019-03-21T10:59:19.262Z,3.62
2019-03-21T11:01:49.245Z,4.10
2019-03-21T11:04:19.366Z,3.42
2019-03-21T11:06:49.413Z,3.60
2019-03-21T11:09:19.519Z,3.33
2019-03-21T11:11:49.734Z,3.47
2019-03-21T11:14:20.049Z,3.33
2019-03-21T11:16:50.089Z,3.52
2019-03-21T11:19:20.369Z,4.17
2019-03-21T11:21:50.555Z,3.80
2019-03-21T11:24:20.717Z,3.95
2019-03-21T11:26:50.901Z,4.45
2019-03-21T11:29:21.001Z,4.00
2019-03-21T11:31:51.030Z,3.83
2019-03-21T11:34:21.254Z,3.12
2019-03-21T11:36:51.444Z,3.40
2019-03-21T11:39:21.591Z,4.12
2019-03-21T11:41:51.617Z,3.90
2019-03-21T11:44:21.653Z,4.80
2019-03-21T11:46:51.707Z,4.67
2019-03-21T11:49:21.719Z,4.90
2019-03-21T11:51:51.851Z,4.87
2019-03-21T11:54:21.907Z,4.37
2019-03-21T11:56:52.053Z,4.00
2019-03-21T11:59:22.182Z,4.03
2019-03-21T12:01:52.280Z,3.90
2019-03-21T12:04:22.293Z,4.28
2019-03-21T12:06:52.403Z,4.55
2019-03-21T12:09:22.428Z,5.05
2019-03-21T12:11:52.532Z,6.78
2019-03-21T12:14:22.811Z,6.75
2019-03-21T12:16:52.908Z,6.78
2019-03-21T12:19:22.939Z,6.28
2019-03-21T12:21:52.997Z,6.50
2019-03-21T12:24:23.221Z,5.90
2019-03-21T12:26:53.525Z,5.33
2019-03-21T12:29:23.654Z,5.35
2019-03-21T12:31:53.854Z,4.95
2019-03-21T12:34:24.057Z,6.22
2019-03-21T12:36:54.268Z,6.70
2019-03-21T12:39:24.498Z,6.83
2019-03-21T12:41:54.518Z,5.47
2019-03-21T12:44:24.704Z,5.15
2019-03-21T12:46:54.822Z,4.70
2019-03-21T12:49:25.206Z,4.65
2019-03-21T12:51:55.277Z,5.03
2019-03-21T12:54:25.308Z,4.67
2019-03-21T12:56:55.308Z,5.45
2019-03-21T12:59:25.869Z,5.17
2019-03-21T13:01:56.169Z,5.37
2019-03-21T13:04:26.249Z,5.15
2019-03-21T13:06:56.298Z,5.40
2019-03-21T13:09:26.302Z,4.45
2019-03-21T13:11:56.283Z,5.10
2019-03-21T13:14:26.395Z,4.37
2019-03-21T13:16:56.432Z,5.10
2019-03-21T13:19:26.520Z,4.95
2019-03-21T13:21:56.632Z,5.25
2019-03-21T13:24:26.851Z,4.72
2019-03-21T13:26:57.042Z,4.70
2019-03-21T13:29:27.263Z,4.62
2019-03-21T13:31:57.616Z,4.40
2019-03-21T13:34:27.765Z,4.22
2019-03-21T13:36:57.922Z,3.67
2019-03-21T13:39:28.288Z,3.47
2019-03-21T13:41:58.436Z,3.98
2019-03-21T13:44:28.523Z,3.60
2019-03-21T13:46:58.811Z,4.25
2019-03-21T13:49:28.915Z,3.80
2019-03-21T13:51:58.969Z,3.83
2019-03-21T13:54:29.429Z,4.43
2019-03-21T13:56:59.438Z,3.30
2019-03-21T13:59:29.584Z,4.00
2019-03-21T14:01:59.886Z,3.35
2019-03-21T14:04:29.975Z,3.65
2019-03-21T14:07:00.157Z,3.45
2019-03-21T14:09:30.548Z,3.30
2019-03-21T14:12:00.585Z,3.58
2019-03-21T14:14:31.003Z,3.83
2019-03-21T14:17:00.996Z,3.00
2019-03-21T14:19:31.056Z,3.77
2019-03-21T14:22:01.056Z,3.40
2019-03-21T14:24:31.061Z,3.52
2019-03-21T14:27:01.229Z,3.62
2019-03-21T14:29:31.399Z,3.70
2019-03-21T14:32:01.470Z,3.55
2019-03-21T14:34:31.526Z,3.35
2019-03-21T14:37:01.601Z,3.52
2019-03-21T14:39:31.638Z,4.30
2019-03-21T14:42:01.944Z,4.35
2019-03-21T14:44:31.980Z,4.12
2019-03-21T14:47:02.070Z,3.62
2019-03-21T14:49:32.076Z,3.25
2019-03-21T14:52:02.204Z,3.72
2019-03-21T14:54:32.404Z,3.60
2019-03-21T14:57:02.551Z,3.87
2019-03-21T14:59:32.817Z,3.72
2019-03-21T15:02:03.252Z,3.30
2019-03-21T15:04:33.209Z,3.33
2019-03-21T15:07:03.367Z,3.35
2019-03-21T15:09:33.582Z,4.00
2019-03-21T15:12:03.612Z,2.92
2019-03-21T15:14:33.723Z,4.45
2019-03-21T15:17:03.891Z,4.90
2019-03-21T15:19:34.052Z,3.27
2019-03-21T15:22:04.119Z,3.35
2019-03-21T15:24:34.164Z,4.20
2019-03-21T15:27:04.256Z,3.12
2019-03-21T15:29:35.463Z,3.60
2019-03-21T15:32:05.715Z,3.17
2019-03-21T15:34:35.732Z,3.23
2019-03-21T15:37:05.767Z,2.87
2019-03-21T15:39:35.895Z,4.20
2019-03-21T15:42:06.134Z,4.47
2019-03-21T15:44:36.239Z,3.60
2019-03-21T15:47:16.066Z,4.25
2019-03-21T15:49:46.130Z,3.42
2019-03-21T15:52:16.170Z,3.95
2019-03-21T15:54:46.221Z,3.70
2019-03-21T15:57:16.259Z,4.55
2019-03-21T15:59:46.332Z,6.30
2019-03-21T16:02:16.452Z,6.83
2019-03-21T16:04:46.714Z,6.60
2019-03-21T16:07:16.912Z,4.25
2019-03-21T16:09:47.058Z,4.25
2019-03-21T16:12:17.256Z,4.72
2019-03-21T16:14:49.234Z,4.75
2019-03-21T16:17:18.960Z,5.35
2019-03-21T16:19:48.976Z,5.40
2019-03-21T16:22:19.057Z,5.28
2019-03-21T16:24:49.135Z,5.72
2019-03-21T16:27:19.164Z,4.40
2019-03-21T16:29:49.316Z,5.28
2019-03-21T16:32:19.434Z,6.03
2019-03-21T16:34:49.951Z,5.67
2019-03-21T16:37:20.009Z,5.37
2019-03-21T16:39:50.045Z,5.20
2019-03-21T16:42:20.068Z,5.33
2019-03-21T16:44:50.104Z,5.00
2019-03-21T16:47:20.180Z,4.90
2019-03-21T16:49:50.243Z,5.80
2019-03-21T16:52:20.456Z,5.65
2019-03-21T16:54:50.598Z,5.87
2019-03-21T16:57:20.957Z,6.55
2019-03-21T16:59:51.055Z,7.62
2019-03-21T17:02:21.244Z,10.20
2019-03-21T17:04:51.427Z,11.03
2019-03-21T17:07:21.559Z,11.57
2019-03-21T17:09:51.602Z,11.33
2019-03-21T17:12:21.815Z,13.00
2019-03-21T17:14:51.917Z,15.50
2019-03-21T17:17:22.253Z,13.90
2019-03-21T17:19:52.482Z,13.97
2019-03-21T17:22:22.561Z,19.02
2019-03-21T17:24:52.731Z,26.63
2019-03-21T17:27:22.951Z,20.43
2019-03-21T17:29:53.200Z,22.25
2019-03-21T17:32:23.242Z,20.67
2019-03-21T17:34:53.528Z,22.20
2019-03-21T17:37:26.736Z,27.40
2019-03-21T17:39:56.898Z,30.25
2019-03-21T17:42:27.099Z,30.12
2019-03-21T17:44:57.181Z,28.62
2019-03-21T17:47:27.229Z,23.07
2019-03-21T17:49:57.375Z,25.40
2019-03-21T17:52:27.735Z,28.23
2019-03-21T17:54:57.854Z,25.20
2019-03-21T17:57:34.265Z,25.50
2019-03-21T17:59:59.902Z,22.82
2019-03-21T18:02:30.508Z,20.00
2019-03-21T18:05:00.671Z,19.70
2019-03-21T18:07:31.073Z,15.23
2019-03-21T18:10:01.154Z,17.05
2019-03-21T18:12:31.235Z,14.93
2019-03-21T18:15:01.569Z,13.53
2019-03-21T18:17:31.787Z,13.60
2019-03-21T18:20:03.171Z,14.80
2019-03-21T18:22:33.416Z,18.50
2019-03-21T18:25:03.767Z,13.90
2019-03-21T18:27:33.927Z,13.63
2019-03-21T18:30:04.756Z,12.10
2019-03-21T18:32:34.769Z,10.98
2019-03-21T18:35:05.118Z,10.73
2019-03-21T18:37:35.295Z,12.07
2019-03-21T18:40:07.004Z,11.20
2019-03-21T18:42:37.273Z,11.68
2019-03-21T18:45:07.795Z,11.43
2019-03-21T18:47:37.944Z,12.27
2019-03-21T18:50:09.557Z,12.93
2019-03-21T18:52:39.666Z,12.33
2019-03-21T18:55:10.143Z,12.75
2019-03-21T18:57:40.357Z,14.70
2019-03-21T19:00:11.399Z,14.13
2019-03-21T19:02:41.527Z,13.10
2019-03-21T19:05:11.790Z,13.33
2019-03-21T19:07:41.831Z,17.30
2019-03-21T19:10:12.298Z,17.10
2019-03-21T19:12:42.808Z,15.23
2019-03-21T19:15:14.365Z,15.70
2019-03-21T19:17:44.358Z,15.90
2019-03-21T19:20:14.694Z,15.60
2019-03-21T19:22:44.701Z,16.30
2019-03-21T19:25:18.755Z,16.55
2019-03-21T19:27:46.999Z,17.03
2019-03-21T19:30:17.151Z,17.43
2019-03-21T19:32:47.243Z,16.35
2019-03-21T19:35:17.460Z,18.30
2019-03-21T19:37:47.517Z,18.57
2019-03-21T19:40:18.410Z,18.40
2019-03-21T19:42:48.555Z,20.63
2019-03-21T19:45:19.112Z,19.80
2019-03-21T19:47:49.163Z,21.27
2019-03-21T19:50:19.627Z,21.97
2019-03-21T19:52:49.871Z,24.93
2019-03-21T19:55:30.381Z,24.63
2019-03-21T19:57:51.947Z,25.13
2019-03-21T20:00:23.118Z,25.70
2019-03-21T20:02:53.123Z,23.33
2019-03-21T20:05:23.263Z,22.07
2019-03-21T20:07:53.571Z,21.50
2019-03-21T20:10:23.787Z,21.43
2019-03-21T20:12:54.752Z,21.03
2019-03-21T20:15:24.945Z,21.00
2019-03-21T20:17:55.129Z,22.73
2019-03-21T20:20:25.196Z,22.40
2019-03-21T20:22:55.212Z,22.73
2019-03-21T20:25:25.367Z,23.53
2019-03-21T20:27:55.563Z,21.97
2019-03-21T20:30:25.795Z,23.23
2019-03-21T20:32:55.925Z,23.43
2019-03-21T20:35:26.019Z,22.27
2019-03-21T20:37:56.043Z,24.13
2019-03-21T20:40:26.059Z,22.73
2019-03-21T20:42:56.213Z,23.00
2019-03-21T20:45:26.388Z,23.50
2019-03-21T20:47:56.833Z,22.93
2019-03-21T20:50:26.932Z,23.50
2019-03-21T20:52:56.987Z,23.40
2019-03-21T20:55:27.109Z,23.40
2019-03-21T20:57:57.292Z,21.80
2019-03-21T21:00:27.429Z,21.80
2019-03-21T21:02:57.619Z,21.83
2019-03-21T21:05:27.684Z,20.97
2019-03-21T21:07:57.989Z,20.23
2019-03-21T21:10:28.147Z,19.93
2019-03-21T21:12:58.267Z,20.03
2019-03-21T21:15:28.423Z,19.33
2019-03-21T21:17:58.742Z,18.43
2019-03-21T21:20:28.808Z,17.37
2019-03-21T21:22:59.188Z,18.53
2019-03-21T21:25:29.281Z,18.17
2019-03-21T21:27:59.325Z,18.77
2019-03-21T21:30:29.567Z,18.30
2019-03-21T21:32:59.617Z,17.17
2019-03-21T21:35:29.858Z,17.37
2019-03-21T21:38:00.160Z,17.47
2019-03-21T21:40:32.755Z,16.70
2019-03-21T21:43:02.914Z,17.27
2019-03-21T21:45:33.024Z,16.53
2019-03-21T21:48:03.087Z,16.63
2019-03-21T21:50:33.255Z,16.60
2019-03-21T21:53:03.388Z,17.80
2019-03-21T21:55:33.614Z,17.23
2019-03-21T21:58:03.843Z,17.07
2019-03-21T22:00:33.889Z,17.07
2019-03-21T22:03:04.317Z,18.23
2019-03-21T22:05:34.456Z,17.07
2019-03-21T22:08:04.614Z,17.80
2019-03-21T22:10:34.737Z,18.00
2019-03-21T22:13:04.804Z,17.40
2019-03-21T22:15:35.058Z,18.03
2019-03-21T22:18:05.158Z,17.60
2019-03-21T22:20:35.433Z,17.23
2019-03-21T22:23:05.671Z,18.57
2019-03-21T22:25:35.744Z,19.50
2019-03-21T22:28:05.958Z,17.83
2019-03-21T22:30:36.193Z,17.57
2019-03-21T22:33:06.260Z,19.17
2019-03-21T22:35:36.388Z,18.17
2019-03-21T22:38:06.470Z,18.93
2019-03-21T22:40:36.600Z,17.97
2019-03-21T22:43:06.651Z,18.50
2019-03-21T22:45:36.854Z,18.03
2019-03-21T22:48:07.091Z,17.43
2019-03-21T22:50:37.199Z,17.80
2019-03-21T22:53:07.512Z,17.43
2019-03-21T22:55:38.070Z,16.97
2019-03-21T22:58:08.116Z,18.53
2019-03-21T23:00:41.597Z,17.90
2019-03-21T23:03:11.885Z,18.00
2019-03-21T23:05:42.027Z,17.07
2019-03-21T23:08:12.174Z,18.00
2019-03-21T23:10:45.024Z,17.07
2019-03-21T23:13:14.545Z,17.23
2019-03-21T23:15:45.023Z,15.73
2019-03-21T23:18:15.058Z,17.90
2019-03-21T23:20:45.213Z,16.33
2019-03-21T23:23:15.267Z,18.30
2019-03-21T23:25:45.403Z,16.93
2019-03-21T23:28:15.570Z,17.43
2019-03-21T23:30:45.649Z,17.00
2019-03-21T23:33:15.989Z,15.63
2019-03-21T23:35:46.215Z,17.00
2019-03-21T23:38:16.395Z,16.03
2019-03-21T23:40:46.424Z,16.83
2019-03-21T23:43:16.785Z,16.33
2019-03-21T23:45:46.828Z,15.07
2019-03-21T23:48:16.853Z,16.63
2019-03-21T23:50:46.943Z,17.17
2019-03-21T23:53:16.999Z,15.47
2019-03-21T23:55:47.341Z,17.37
2019-03-21T23:58:17.451Z,16.67
